MOL Paramount — 3ECH9 — position and weather

sailwx.info

Track history (hours):
 
Tides and Currents Weather Stations Pressure Air Temp Water Temp Dewpoint Dewpoint Depression Visibility Wind Speed Wind Dir Waves Ship Positions

MOL Paramount

Last reported at 2017-Jul-28 15:01 UTC. Time now 2017-Jul-28 15:06 UTC.
Position N 19°29' W 096°02'.

Length 293 m; draft 11.6 m.

Type: Cargo ship. MMSI: 371519000.

Date/timePositionNaut miles runAvg speedWind from/ knotsBaromVisibWave heightAir tempDewpointWater temp
2017-Jul-28 15:01N 19°29' W 096°02'816.6
2017-Jul-28 14:31N 19°21' W 095°58'815.9
2017-Jul-28 14:01N 19°13' W 095°58'612.3
2017-Jul-28 13:30N 19°11' W 096°04'4 7.4
2017-Jul-28 13:00N 19°12' W 096°08'0 0.8
2017-Jul-28 12:29N 19°13' W 096°08'0 0.0
2017-Jul-28 11:59N 19°13' W 096°08'0 0.0
2017-Jul-28 11:29N 19°13' W 096°08'0 0.0
2017-Jul-28 10:59N 19°13' W 096°08'0 0.0
2017-Jul-28 10:29N 19°13' W 096°08'0 0.0
2017-Jul-28 09:59N 19°13' W 096°08'0 0.0
2017-Jul-28 09:29N 19°13' W 096°08'0 0.0
2017-Jul-28 08:59N 19°13' W 096°08'0 0.0
2017-Jul-28 08:29N 19°13' W 096°08'0 0.0
2017-Jul-28 07:59N 19°13' W 096°08'0 0.0
2017-Jul-28 07:23N 19°13' W 096°08'0 0.0
2017-Jul-28 06:59N 19°13' W 096°08'0 0.0
2017-Jul-28 06:29N 19°13' W 096°08'0 0.0
2017-Jul-28 05:59N 19°13' W 096°08'0 0.0
2017-Jul-28 05:29N 19°13' W 096°08'0 0.0
2017-Jul-28 04:59N 19°13' W 096°08'0 0.0
2017-Jul-28 04:29N 19°13' W 096°08'0 0.0
2017-Jul-28 03:59N 19°13' W 096°08'0 0.0
2017-Jul-28 03:29N 19°13' W 096°08'0 0.0
2017-Jul-28 02:59N 19°13' W 096°08'0 0.0
2017-Jul-28 02:29N 19°13' W 096°08'0 0.0
2017-Jul-28 01:59N 19°13' W 096°08'0 0.0
2017-Jul-28 01:29N 19°13' W 096°08'0 0.0
2017-Jul-28 00:59N 19°13' W 096°08'0 0.0
2017-Jul-28 00:29N 19°13' W 096°08'0 0.0
2017-Jul-27 23:56N 19°13' W 096°08'0 0.0
2017-Jul-27 23:29N 19°13' W 096°08'0 0.0
2017-Jul-27 22:59N 19°13' W 096°08'0 0.0
2017-Jul-27 22:29N 19°13' W 096°08'0 0.0
2017-Jul-27 21:59N 19°13' W 096°08'0 0.0
2017-Jul-27 21:26N 19°13' W 096°08'0 0.0
2017-Jul-27 20:59N 19°13' W 096°08'0 0.0
2017-Jul-27 20:26N 19°13' W 096°08'0 0.0
2017-Jul-27 19:59N 19°13' W 096°08'0 0.0
2017-Jul-27 19:26N 19°13' W 096°08'0 0.0
2017-Jul-27 18:59N 19°13' W 096°08'1 1.3
2017-Jul-27 18:30N 19°12' W 096°08'4 8.3
2017-Jul-27 18:00N 19°12' W 096°03'612.6
2017-Jul-27 17:30N 19°13' W 095°57'917.6
2017-Jul-27 17:00N 19°15' W 095°48'1120.8
2017-Jul-27 16:29N 19°17' W 095°36'  
2017-Jul-24 22:41N 09°36' W 079°57'419.5
2017-Jul-24 22:30N 09°33' W 079°55'816.3
2017-Jul-24 22:00N 09°24' W 079°55'3 6.7
2017-Jul-24 21:30N 09°21' W 079°55'0 1.0
2017-Jul-24 21:00N 09°21' W 079°54'0 0.0
2017-Jul-24 20:30N 09°21' W 079°54'0 0.0
2017-Jul-24 20:00N 09°21' W 079°54'0 0.0
2017-Jul-24 19:30N 09°21' W 079°54'0 0.0
2017-Jul-24 17:16N 09°21' W 079°54'0 0.1
2017-Jul-24 16:58N 09°21' W 079°54'0 0.0
2017-Jul-24 16:28N 09°21' W 079°54'0 0.0
2017-Jul-24 15:46N 09°21' W 079°54'0 0.0
2017-Jul-24 12:58N 09°21' W 079°54'0 0.0
2017-Jul-24 12:28N 09°21' W 079°54'0 0.1
2017-Jul-24 11:58N 09°21' W 079°54'0 0.0
2017-Jul-24 11:28N 09°21' W 079°54'0 0.0
2017-Jul-24 10:58N 09°21' W 079°54'0 0.0
2017-Jul-24 10:25N 09°21' W 079°54'0 0.0
2017-Jul-24 09:58N 09°21' W 079°54'0 0.0
2017-Jul-24 09:28N 09°21' W 079°54'0 0.0
2017-Jul-24 08:58N 09°21' W 079°54'0 0.0
2017-Jul-24 08:28N 09°21' W 079°54'0 0.0
2017-Jul-24 07:58N 09°21' W 079°54'0 0.0
2017-Jul-24 07:25N 09°21' W 079°54'0 0.0
2017-Jul-24 06:58N 09°21' W 079°54'0 0.0
2017-Jul-24 06:28N 09°21' W 079°54'0 0.0
2017-Jul-24 05:58N 09°21' W 079°54'0 0.0
2017-Jul-24 05:28N 09°21' W 079°54'0 0.0
2017-Jul-24 04:58N 09°21' W 079°54'0 0.1
2017-Jul-24 04:28N 09°21' W 079°54'0 0.2
2017-Jul-24 04:00N 09°21' W 079°55'1 1.8
2017-Jul-24 03:30N 09°22' W 079°55'3 6.2
2017-Jul-24 03:00N 09°25' W 079°55'1 1.6
2017-Jul-24 02:29N 09°25' W 079°56'0 0.1
2017-Jul-24 01:59N 09°25' W 079°55'0 0.0
2017-Jul-24 01:29N 09°25' W 079°55'0 0.0
2017-Jul-24 00:59N 09°25' W 079°55'0 0.0
2017-Jul-24 00:23N 09°25' W 079°55'0 0.0
2017-Jul-23 23:56N 09°25' W 079°55'0 0.0
2017-Jul-23 23:29N 09°25' W 079°55'0 0.0
2017-Jul-23 22:56N 09°25' W 079°55'0 0.0
2017-Jul-23 22:26N 09°25' W 079°55'0 0.0
2017-Jul-23 21:59N 09°25' W 079°55'0 0.0
2017-Jul-23 21:29N 09°25' W 079°55'0 0.0
2017-Jul-23 20:59N 09°25' W 079°55'0 0.0
2017-Jul-23 20:29N 09°25' W 079°55'0 0.0
2017-Jul-23 19:56N 09°25' W 079°55'0 0.0
2017-Jul-23 19:29N 09°25' W 079°55'0 0.0
2017-Jul-23 18:53N 09°25' W 079°55'0 0.0
2017-Jul-23 18:29N 09°25' W 079°55'0 0.0
2017-Jul-23 17:47N 09°25' W 079°55'0 0.0
2017-Jul-23 17:29N 09°25' W 079°55'0 0.0
2017-Jul-23 16:59N 09°25' W 079°55'0 0.0
2017-Jul-23 16:26N 09°25' W 079°55'0 0.0
2017-Jul-23 15:59N 09°25' W 079°55'0 0.0
2017-Jul-23 15:29N 09°25' W 079°55'0 0.0
2017-Jul-23 14:59N 09°25' W 079°55'0 0.0
2017-Jul-23 14:29N 09°25' W 079°55'0 0.0
2017-Jul-23 13:59N 09°25' W 079°55'0 0.0
2017-Jul-23 13:23N 09°25' W 079°55'0 0.0
2017-Jul-23 12:59N 09°25' W 079°55'0 0.0
2017-Jul-23 12:26N 09°25' W 079°55'0 0.0
2017-Jul-23 11:59N 09°25' W 079°55'0 0.0
2017-Jul-23 11:29N 09°25' W 079°55'0 0.0
2017-Jul-23 10:59N 09°25' W 079°55'0 0.0
2017-Jul-23 10:29N 09°25' W 079°55'0 0.0
2017-Jul-23 09:59N 09°25' W 079°55'0 0.0
2017-Jul-23 09:29N 09°25' W 079°55'0 0.0
2017-Jul-23 08:59N 09°25' W 079°55'0 0.0
2017-Jul-23 08:29N 09°25' W 079°55'0 0.0
2017-Jul-23 07:59N 09°25' W 079°55'0 0.0
2017-Jul-23 07:26N 09°25' W 079°55'0 0.0
2017-Jul-23 06:50N 09°25' W 079°55'0 0.0
2017-Jul-23 06:29N 09°25' W 079°55'0 0.3
2017-Jul-23 06:01N 09°25' W 079°56'1 1.9
2017-Jul-23 05:31N 09°26' W 079°55'2 4.3
2017-Jul-23 05:01N 09°28' W 079°54'4 8.0
2017-Jul-23 04:31N 09°32' W 079°53'510.1
2017-Jul-23 03:59N 09°37' W 079°51'  
Track history (hours):
 
Tides and Currents Weather Stations Pressure Air Temp Water Temp Dewpoint Dewpoint Depression Visibility Wind Speed Wind Dir Waves Ship Positions

MOL Paramount

Last reported at 2017-Jul-28 15:01 UTC. Time now 2017-Jul-28 15:06 UTC.
Position N 19°29' W 096°02'.

Length 293 m; draft 11.6 m.

Type: Cargo ship. MMSI: 371519000.

Date/timePositionNaut miles runAvg speedWind from/ knotsBaromVisibWave heightAir tempDewpointWater temp
2017-Jul-28 15:01N 19°29' W 096°02'816.6
2017-Jul-28 14:31N 19°21' W 095°58'815.9
2017-Jul-28 14:01N 19°13' W 095°58'612.3
2017-Jul-28 13:30N 19°11' W 096°04'4 7.4
2017-Jul-28 13:00N 19°12' W 096°08'0 0.8
2017-Jul-28 12:29N 19°13' W 096°08'0 0.0
2017-Jul-28 11:59N 19°13' W 096°08'0 0.0
2017-Jul-28 11:29N 19°13' W 096°08'0 0.0
2017-Jul-28 10:59N 19°13' W 096°08'0 0.0
2017-Jul-28 10:29N 19°13' W 096°08'0 0.0
2017-Jul-28 09:59N 19°13' W 096°08'0 0.0
2017-Jul-28 09:29N 19°13' W 096°08'0 0.0
2017-Jul-28 08:59N 19°13' W 096°08'0 0.0
2017-Jul-28 08:29N 19°13' W 096°08'0 0.0
2017-Jul-28 07:59N 19°13' W 096°08'0 0.0
2017-Jul-28 07:23N 19°13' W 096°08'0 0.0
2017-Jul-28 06:59N 19°13' W 096°08'0 0.0
2017-Jul-28 06:29N 19°13' W 096°08'0 0.0
2017-Jul-28 05:59N 19°13' W 096°08'0 0.0
2017-Jul-28 05:29N 19°13' W 096°08'0 0.0
2017-Jul-28 04:59N 19°13' W 096°08'0 0.0
2017-Jul-28 04:29N 19°13' W 096°08'0 0.0
2017-Jul-28 03:59N 19°13' W 096°08'0 0.0
2017-Jul-28 03:29N 19°13' W 096°08'0 0.0
2017-Jul-28 02:59N 19°13' W 096°08'0 0.0
2017-Jul-28 02:29N 19°13' W 096°08'0 0.0
2017-Jul-28 01:59N 19°13' W 096°08'0 0.0
2017-Jul-28 01:29N 19°13' W 096°08'0 0.0
2017-Jul-28 00:59N 19°13' W 096°08'0 0.0
2017-Jul-28 00:29N 19°13' W 096°08'0 0.0
2017-Jul-27 23:56N 19°13' W 096°08'0 0.0
2017-Jul-27 23:29N 19°13' W 096°08'0 0.0
2017-Jul-27 22:59N 19°13' W 096°08'0 0.0
2017-Jul-27 22:29N 19°13' W 096°08'0 0.0
2017-Jul-27 21:59N 19°13' W 096°08'0 0.0
2017-Jul-27 21:26N 19°13' W 096°08'0 0.0
2017-Jul-27 20:59N 19°13' W 096°08'0 0.0
2017-Jul-27 20:26N 19°13' W 096°08'0 0.0
2017-Jul-27 19:59N 19°13' W 096°08'0 0.0
2017-Jul-27 19:26N 19°13' W 096°08'0 0.0
2017-Jul-27 18:59N 19°13' W 096°08'1 1.3
2017-Jul-27 18:30N 19°12' W 096°08'4 8.3
2017-Jul-27 18:00N 19°12' W 096°03'612.6
2017-Jul-27 17:30N 19°13' W 095°57'917.6
2017-Jul-27 17:00N 19°15' W 095°48'1120.8
2017-Jul-27 16:29N 19°17' W 095°36'  
2017-Jul-24 22:41N 09°36' W 079°57'419.5
2017-Jul-24 22:30N 09°33' W 079°55'816.3
2017-Jul-24 22:00N 09°24' W 079°55'3 6.7
2017-Jul-24 21:30N 09°21' W 079°55'0 1.0
2017-Jul-24 21:00N 09°21' W 079°54'0 0.0
2017-Jul-24 20:30N 09°21' W 079°54'0 0.0
2017-Jul-24 20:00N 09°21' W 079°54'0 0.0
2017-Jul-24 19:30N 09°21' W 079°54'0 0.0
2017-Jul-24 17:16N 09°21' W 079°54'0 0.1
2017-Jul-24 16:58N 09°21' W 079°54'0 0.0
2017-Jul-24 16:28N 09°21' W 079°54'0 0.0
2017-Jul-24 15:46N 09°21' W 079°54'0 0.0
2017-Jul-24 12:58N 09°21' W 079°54'0 0.0
2017-Jul-24 12:28N 09°21' W 079°54'0 0.1
2017-Jul-24 11:58N 09°21' W 079°54'0 0.0
2017-Jul-24 11:28N 09°21' W 079°54'0 0.0
2017-Jul-24 10:58N 09°21' W 079°54'0 0.0
2017-Jul-24 10:25N 09°21' W 079°54'0 0.0
2017-Jul-24 09:58N 09°21' W 079°54'0 0.0
2017-Jul-24 09:28N 09°21' W 079°54'0 0.0
2017-Jul-24 08:58N 09°21' W 079°54'0 0.0
2017-Jul-24 08:28N 09°21' W 079°54'0 0.0
2017-Jul-24 07:58N 09°21' W 079°54'0 0.0
2017-Jul-24 07:25N 09°21' W 079°54'0 0.0
2017-Jul-24 06:58N 09°21' W 079°54'0 0.0
2017-Jul-24 06:28N 09°21' W 079°54'0 0.0
2017-Jul-24 05:58N 09°21' W 079°54'0 0.0
2017-Jul-24 05:28N 09°21' W 079°54'0 0.0
2017-Jul-24 04:58N 09°21' W 079°54'0 0.1
2017-Jul-24 04:28N 09°21' W 079°54'0 0.2
2017-Jul-24 04:00N 09°21' W 079°55'1 1.8
2017-Jul-24 03:30N 09°22' W 079°55'3 6.2
2017-Jul-24 03:00N 09°25' W 079°55'1 1.6
2017-Jul-24 02:29N 09°25' W 079°56'0 0.1
2017-Jul-24 01:59N 09°25' W 079°55'0 0.0
2017-Jul-24 01:29N 09°25' W 079°55'0 0.0
2017-Jul-24 00:59N 09°25' W 079°55'0 0.0
2017-Jul-24 00:23N 09°25' W 079°55'0 0.0
2017-Jul-23 23:56N 09°25' W 079°55'0 0.0
2017-Jul-23 23:29N 09°25' W 079°55'0 0.0
2017-Jul-23 22:56N 09°25' W 079°55'0 0.0
2017-Jul-23 22:26N 09°25' W 079°55'0 0.0
2017-Jul-23 21:59N 09°25' W 079°55'0 0.0
2017-Jul-23 21:29N 09°25' W 079°55'0 0.0
2017-Jul-23 20:59N 09°25' W 079°55'0 0.0
2017-Jul-23 20:29N 09°25' W 079°55'0 0.0
2017-Jul-23 19:56N 09°25' W 079°55'0 0.0
2017-Jul-23 19:29N 09°25' W 079°55'0 0.0
2017-Jul-23 18:53N 09°25' W 079°55'0 0.0
2017-Jul-23 18:29N 09°25' W 079°55'0 0.0
2017-Jul-23 17:47N 09°25' W 079°55'0 0.0
2017-Jul-23 17:29N 09°25' W 079°55'0 0.0
2017-Jul-23 16:59N 09°25' W 079°55'0 0.0
2017-Jul-23 16:26N 09°25' W 079°55'0 0.0
2017-Jul-23 15:59N 09°25' W 079°55'0 0.0
2017-Jul-23 15:29N 09°25' W 079°55'0 0.0
2017-Jul-23 14:59N 09°25' W 079°55'0 0.0
2017-Jul-23 14:29N 09°25' W 079°55'0 0.0
2017-Jul-23 13:59N 09°25' W 079°55'0 0.0
2017-Jul-23 13:23N 09°25' W 079°55'0 0.0
2017-Jul-23 12:59N 09°25' W 079°55'0 0.0
2017-Jul-23 12:26N 09°25' W 079°55'0 0.0
2017-Jul-23 11:59N 09°25' W 079°55'0 0.0
2017-Jul-23 11:29N 09°25' W 079°55'0 0.0
2017-Jul-23 10:59N 09°25' W 079°55'0 0.0
2017-Jul-23 10:29N 09°25' W 079°55'0 0.0
2017-Jul-23 09:59N 09°25' W 079°55'0 0.0
2017-Jul-23 09:29N 09°25' W 079°55'0 0.0
2017-Jul-23 08:59N 09°25' W 079°55'0 0.0
2017-Jul-23 08:29N 09°25' W 079°55'0 0.0
2017-Jul-23 07:59N 09°25' W 079°55'0 0.0
2017-Jul-23 07:26N 09°25' W 079°55'0 0.0
2017-Jul-23 06:50N 09°25' W 079°55'0 0.0
2017-Jul-23 06:29N 09°25' W 079°55'0 0.3
2017-Jul-23 06:01N 09°25' W 079°56'1 1.9
2017-Jul-23 05:31N 09°26' W 079°55'2 4.3
2017-Jul-23 05:01N 09°28' W 079°54'4 8.0
2017-Jul-23 04:31N 09°32' W 079°53'510.1
2017-Jul-23 03:59N 09°37' W 079°51'  

Dump ship's entire track history